Station Historical Data
Daily Summary for December 1, 2017 Units:  English    Metric   Both
« Previous Day
Next Day »
Daily Weekly Monthly Yearly Custom
  High: Low: Average:
Temperature: 54.7 °F 42.2 °F 46.8 °F
Dew Point: 44.3 °F 32.5 °F 38.1 °F
Humidity: 88 % 57 % 72 %
Wind Speed: 15.0 mph 0.0 mph 1.6 mph
Wind Gust: 16.0 mph - -
Wind:- - ESE
Pressure: 30.17 in 30.10 in -
Precipitation: 0.00 in    
Historical Graphs
 
 
Tabular Data for December 1, 2017
Time Temperature Dew Point Pressure Wind Wind Speed Wind Gust Humidity Rainfall Rate (Hourly) solar
00:04 45.6 °F 38.2 °F 30.16 in Calm     75 % 0.00 in 0.00 W/m2
00:09 45.5 °F 38.0 °F 30.16 in Calm     75 % 0.00 in 0.00 W/m2
00:14 45.5 °F 38.4 °F 30.16 in East 2.0 mph 4.0 mph 76 % 0.00 in 0.00 W/m2
00:19 45.5 °F 38.4 °F 30.16 in Calm   3.0 mph 76 % 0.00 in 0.00 W/m2
00:30 45.2 °F 37.8 °F 30.16 in East 5.0 mph 5.0 mph 75 % 0.00 in 0.00 W/m2
00:35 45.2 °F 37.1 °F 30.15 in East 4.0 mph 6.0 mph 73 % 0.00 in 0.00 W/m2
00:40 45.2 °F 36.7 °F 30.15 in East 5.0 mph 8.0 mph 72 % 0.00 in 0.00 W/m2
00:45 45.1 °F 36.6 °F 30.15 in East 5.0 mph 7.0 mph 72 % 0.00 in 0.00 W/m2
00:50 45.1 °F 37.0 °F 30.15 in East 9.0 mph 9.0 mph 73 % 0.00 in 0.00 W/m2
01:00 45.1 °F 36.3 °F 30.16 in ESE 6.0 mph 9.0 mph 71 % 0.00 in 0.00 W/m2
01:05 45.1 °F 36.3 °F 30.15 in ESE 2.0 mph 12.0 mph 71 % 0.00 in 0.00 W/m2
01:10 45.1 °F 36.6 °F 30.15 in East 9.0 mph 9.0 mph 72 % 0.00 in 0.00 W/m2
01:15 45.0 °F 36.2 °F 30.15 in Calm   12.0 mph 71 % 0.00 in 0.00 W/m2
01:25 45.0 °F 35.5 °F 30.14 in ESE 9.0 mph 12.0 mph 69 % 0.00 in 0.00 W/m2
01:30 45.0 °F 35.8 °F 30.14 in Calm     70 % 0.00 in 0.00 W/m2
01:35 45.0 °F 35.8 °F 30.14 in East 4.0 mph 14.0 mph 70 % 0.00 in 0.00 W/m2
01:40 45.0 °F 35.5 °F 30.13 in Calm   14.0 mph 69 % 0.00 in 0.00 W/m2
01:45 45.0 °F 34.7 °F 30.13 in East 1.0 mph 13.0 mph 67 % 0.00 in 0.00 W/m2
01:50 45.0 °F 35.1 °F 30.14 in Calm   13.0 mph 68 % 0.00 in 0.00 W/m2
01:55 45.0 °F 35.1 °F 30.14 in East 4.0 mph 13.0 mph 68 % 0.00 in 0.00 W/m2
02:00 45.0 °F 35.5 °F 30.14 in Calm   13.0 mph 69 % 0.00 in 0.00 W/m2
02:05 44.9 °F 35.0 °F 30.14 in Calm   9.0 mph 68 % 0.00 in 0.00 W/m2
02:10 44.9 °F 34.6 °F 30.15 in ESE 4.0 mph 9.0 mph 67 % 0.00 in 0.00 W/m2
02:15 44.9 °F 34.6 °F 30.15 in Calm   11.0 mph 67 % 0.00 in 0.00 W/m2
02:16 44.9 °F 34.2 °F 30.15 in Calm     66 % 0.00 in 0.00 W/m2
02:21 44.9 °F 34.2 °F 30.14 in Calm     66 % 0.00 in 0.00 W/m2
02:26 44.9 °F 34.2 °F 30.15 in Calm     66 % 0.00 in 0.00 W/m2
02:41 44.8 °F 34.5 °F 30.15 in Calm   6.0 mph 67 % 0.00 in 0.00 W/m2
02:46 44.8 °F 34.5 °F 30.15 in Calm   4.0 mph 67 % 0.00 in 0.00 W/m2
02:51 44.7 °F 34.8 °F 30.15 in Calm   13.0 mph 68 % 0.00 in 0.00 W/m2
02:56 44.7 °F 34.0 °F 30.14 in ESE 1.0 mph 6.0 mph 66 % 0.00 in 0.00 W/m2
03:01 44.7 °F 34.4 °F 30.14 in ESE 1.0 mph 5.0 mph 67 % 0.00 in 0.00 W/m2
03:06 44.6 °F 34.7 °F 30.14 in East 2.0 mph 12.0 mph 68 % 0.00 in 0.00 W/m2
03:11 44.6 °F 35.1 °F 30.14 in Calm   6.0 mph 69 % 0.00 in 0.00 W/m2
03:16 44.5 °F 34.2 °F 30.14 in ESE 4.0 mph 13.0 mph 67 % 0.00 in 0.00 W/m2
03:21 44.5 °F 33.9 °F 30.14 in Calm   11.0 mph 66 % 0.00 in 0.00 W/m2
03:26 44.5 °F 34.2 °F 30.14 in Calm     67 % 0.00 in 0.00 W/m2
03:31 44.5 °F 34.2 °F 30.14 in Calm   7.0 mph 67 % 0.00 in 0.00 W/m2
03:36 44.4 °F 34.5 °F 30.14 in Calm   6.0 mph 68 % 0.00 in 0.00 W/m2
03:41 44.4 °F 34.5 °F 30.14 in Calm   11.0 mph 68 % 0.00 in 0.00 W/m2
03:56 44.2 °F 34.3 °F 30.13 in Calm   7.0 mph 68 % 0.00 in 0.00 W/m2
04:01 44.1 °F 34.2 °F 30.13 in Calm     68 % 0.00 in 0.00 W/m2
04:06 44.1 °F 33.9 °F 30.13 in ESE 6.0 mph 6.0 mph 67 % 0.00 in 0.00 W/m2
04:21 44.0 °F 34.1 °F 30.13 in Calm   7.0 mph 68 % 0.00 in 0.00 W/m2
04:31 44.0 °F 33.4 °F 30.14 in Calm   4.0 mph 66 % 0.00 in 0.00 W/m2
04:36 44.0 °F 33.4 °F 30.14 in East 4.0 mph 4.0 mph 66 % 0.00 in 0.00 W/m2
04:41 44.0 °F 34.1 °F 30.13 in Calm   9.0 mph 68 % 0.00 in 0.00 W/m2
04:51 43.9 °F 34.0 °F 30.13 in Calm   8.0 mph 68 % 0.00 in 0.00 W/m2
04:56 43.8 °F 33.9 °F 30.13 in Calm   8.0 mph 68 % 0.00 in 0.00 W/m2
05:06 43.7 °F 33.8 °F 30.14 in Calm   6.0 mph 68 % 0.00 in 0.00 W/m2
05:16 43.6 °F 34.1 °F 30.14 in Calm     69 % 0.00 in 0.00 W/m2
05:21 43.6 °F 33.8 °F 30.14 in East 4.0 mph 7.0 mph 68 % 0.00 in 0.00 W/m2
05:26 43.5 °F 34.0 °F 30.13 in ESE 5.0 mph 8.0 mph 69 % 0.00 in 0.00 W/m2
05:36 43.4 °F 33.6 °F 30.13 in Calm     68 % 0.00 in 0.00 W/m2
05:38 43.4 °F 33.9 °F 30.13 in ESE 2.0 mph 7.0 mph 69 % 0.00 in 0.00 W/m2
05:43 43.3 °F 33.5 °F 30.14 in East 6.0 mph 6.0 mph 68 % 0.00 in 0.00 W/m2
05:53 43.2 °F 33.7 °F 30.13 in Calm   7.0 mph 69 % 0.00 in 0.00 W/m2
05:58 43.1 °F 33.6 °F 30.14 in Calm   5.0 mph 69 % 0.00 in 0.00 W/m2
06:03 43.0 °F 33.5 °F 30.14 in East 6.0 mph 9.0 mph 69 % 0.00 in 0.00 W/m2
06:08 42.9 °F 33.4 °F 30.14 in East 6.0 mph 11.0 mph 69 % 0.00 in 0.00 W/m2
06:13 42.8 °F 33.3 °F 30.14 in Calm   7.0 mph 69 % 0.00 in 0.00 W/m2
06:18 42.8 °F 33.0 °F 30.14 in Calm   8.0 mph 68 % 0.00 in 0.00 W/m2
06:23 42.7 °F 33.2 °F 30.14 in Calm   8.0 mph 69 % 0.00 in 0.00 W/m2
06:33 42.7 °F 33.6 °F 30.14 in ESE 5.0 mph 7.0 mph 70 % 0.00 in 0.00 W/m2
06:38 42.6 °F 33.2 °F 30.14 in Calm   8.0 mph 69 % 0.00 in 0.00 W/m2
06:43 42.5 °F 33.4 °F 30.14 in Calm   8.0 mph 70 % 0.00 in 0.00 W/m2
06:48 42.5 °F 33.1 °F 30.14 in Calm   8.0 mph 69 % 0.00 in 0.00 W/m2
06:58 42.4 °F 33.3 °F 30.14 in ESE 1.0 mph 6.0 mph 70 % 0.00 in 5.00 W/m2
07:03 42.4 °F 33.3 °F 30.14 in Calm   9.0 mph 70 % 0.00 in 5.00 W/m2
07:08 42.3 °F 33.2 °F 30.14 in Calm   9.0 mph 70 % 0.00 in 7.00 W/m2
07:13 42.3 °F 33.2 °F 30.14 in East 6.0 mph 9.0 mph 70 % 0.00 in 11.00 W/m2
07:18 42.2 °F 33.1 °F 30.14 in ESE 4.0 mph 8.0 mph 70 % 0.00 in 16.00 W/m2
07:28 42.3 °F 32.5 °F 30.14 in Calm   12.0 mph 68 % 0.00 in 30.00 W/m2
07:33 42.3 °F 32.5 °F 30.15 in Calm   9.0 mph 68 % 0.00 in 37.00 W/m2
07:38 42.4 °F 33.3 °F 30.15 in ESE 1.0 mph 7.0 mph 70 % 0.00 in 49.00 W/m2
07:43 42.5 °F 33.1 °F 30.15 in Calm   9.0 mph 69 % 0.00 in 69.00 W/m2
07:48 42.5 °F 32.7 °F 30.15 in ESE 4.0 mph 6.0 mph 68 % 0.00 in 72.00 W/m2
07:53 42.6 °F 32.8 °F 30.15 in Calm   6.0 mph 68 % 0.00 in 90.00 W/m2
08:03 42.7 °F 33.2 °F 30.14 in Calm   13.0 mph 69 % 0.00 in 95.00 W/m2
08:04 42.7 °F 33.2 °F 30.14 in ESE 1.0 mph 13.0 mph 69 % 0.00 in 95.00 W/m2
08:14 42.8 °F 34.1 °F 30.15 in Calm   8.0 mph 71 % 0.00 in 139.00 W/m2
08:19 42.9 °F 33.8 °F 30.15 in Calm   7.0 mph 70 % 0.00 in 160.00 W/m2
08:24 42.9 °F 34.2 °F 30.15 in Calm   6.0 mph 71 % 0.00 in 176.00 W/m2
08:34 43.2 °F 34.1 °F 30.16 in Calm   7.0 mph 70 % 0.00 in 213.00 W/m2
08:39 43.3 °F 34.5 °F 30.15 in Calm   5.0 mph 71 % 0.00 in 232.00 W/m2
08:49 43.6 °F 35.2 °F 30.16 in Calm   5.0 mph 72 % 0.00 in 269.00 W/m2
08:54 43.8 °F 35.7 °F 30.16 in Calm   5.0 mph 73 % 0.00 in 271.00 W/m2
08:59 44.1 °F 35.3 °F 30.16 in Calm   2.0 mph 71 % 0.00 in 301.00 W/m2
09:04 44.3 °F 35.9 °F 30.16 in Calm   4.0 mph 72 % 0.00 in 318.00 W/m2
09:09 44.5 °F 36.4 °F 30.16 in Calm   1.0 mph 73 % 0.00 in 285.00 W/m2
09:19 45.0 °F 36.2 °F 30.17 in Calm     71 % 0.00 in 345.00 W/m2
09:24 45.3 °F 36.5 °F 30.17 in Calm     71 % 0.00 in 308.00 W/m2
09:29 45.6 °F 37.5 °F 30.16 in Calm   5.0 mph 73 % 0.00 in 355.00 W/m2
09:34 46.1 °F 36.9 °F 30.16 in Calm   6.0 mph 70 % 0.00 in 390.00 W/m2
09:39 46.4 °F 37.2 °F 30.16 in ESE 2.0 mph 6.0 mph 70 % 0.00 in 378.00 W/m2
09:49 47.0 °F 36.6 °F 30.16 in Calm   4.0 mph 67 % 0.00 in 364.00 W/m2
09:54 47.3 °F 36.2 °F 30.17 in Calm   4.0 mph 65 % 0.00 in 434.00 W/m2
09:59 47.7 °F 38.0 °F 30.17 in Calm     69 % 0.00 in 425.00 W/m2
10:04 47.9 °F 37.9 °F 30.17 in Calm   2.0 mph 68 % 0.00 in 443.00 W/m2
10:09 48.2 °F 37.8 °F 30.16 in ESE 1.0 mph 4.0 mph 67 % 0.00 in 431.00 W/m2
10:14 48.4 °F 37.2 °F 30.17 in Calm     65 % 0.00 in 446.00 W/m2
10:20 48.7 °F 37.9 °F 30.17 in Calm   2.0 mph 66 % 0.00 in 431.00 W/m2
10:25 49.0 °F 37.4 °F 30.16 in Calm   1.0 mph 64 % 0.00 in 422.00 W/m2
10:35 49.6 °F 37.5 °F 30.16 in Calm     63 % 0.00 in 399.00 W/m2
10:40 50.0 °F 39.1 °F 30.16 in Calm   1.0 mph 66 % 0.00 in 422.00 W/m2
10:45 50.2 °F 38.9 °F 30.16 in Calm   4.0 mph 65 % 0.00 in 492.00 W/m2
10:50 50.4 °F 38.7 °F 30.16 in Calm     64 % 0.00 in 466.00 W/m2
10:54 50.6 °F 38.5 °F 30.15 in Calm     63 % 0.00 in 471.00 W/m2
11:04 51.2 °F 39.5 °F 30.15 in Calm     64 % 0.00 in 450.00 W/m2
11:08 51.3 °F 39.5 °F 30.15 in Calm     64 % 0.00 in 443.00 W/m2
11:13 51.5 °F 40.1 °F 30.15 in Calm     65 % 0.00 in 403.00 W/m2
11:23 51.8 °F 40.8 °F 30.15 in Calm     66 % 0.00 in 424.00 W/m2
11:28 51.9 °F 40.9 °F 30.15 in Calm     66 % 0.00 in 438.00 W/m2
11:33 51.9 °F 40.9 °F 30.15 in Calm     66 % 0.00 in 473.00 W/m2
11:38 51.9 °F 40.5 °F 30.14 in Calm     65 % 0.00 in 448.00 W/m2
11:43 51.9 °F 40.9 °F 30.14 in Calm     66 % 0.00 in 462.00 W/m2
11:48 52.0 °F 41.4 °F 30.14 in Calm     67 % 0.00 in 431.00 W/m2
12:08 52.2 °F 40.0 °F 30.13 in Calm   1.0 mph 63 % 0.00 in 503.00 W/m2
12:13 52.3 °F 40.1 °F 30.13 in Calm   5.0 mph 63 % 0.00 in 512.00 W/m2
12:18 52.5 °F 40.3 °F 30.13 in Calm     63 % 0.00 in 443.00 W/m2
12:23 52.7 °F 40.5 °F 30.13 in Calm   4.0 mph 63 % 0.00 in 499.00 W/m2
12:28 52.9 °F 39.8 °F 30.13 in Calm   6.0 mph 61 % 0.00 in 388.00 W/m2
12:33 53.1 °F 40.8 °F 30.13 in Calm   5.0 mph 63 % 0.00 in 517.00 W/m2
12:38 53.3 °F 41.5 °F 30.13 in SSE 2.0 mph 8.0 mph 64 % 0.00 in 497.00 W/m2
12:43 53.4 °F 41.1 °F 30.12 in Calm   4.0 mph 63 % 0.00 in 499.00 W/m2
12:48 53.6 °F 41.3 °F 30.12 in Calm   6.0 mph 63 % 0.00 in 490.00 W/m2
12:53 53.7 °F 41.0 °F 30.12 in Calm   6.0 mph 62 % 0.00 in 469.00 W/m2
12:58 53.9 °F 41.6 °F 30.12 in SSW 1.0 mph 5.0 mph 63 % 0.00 in 452.00 W/m2
13:08 54.1 °F 42.2 °F 30.11 in Calm   3.0 mph 64 % 0.00 in 459.00 W/m2
13:13 54.2 °F 39.3 °F 30.11 in Calm   3.0 mph 57 % 0.00 in 464.00 W/m2
13:18 54.4 °F 41.7 °F 30.11 in Calm   8.0 mph 62 % 0.00 in 464.00 W/m2
13:29 54.5 °F 42.6 °F 30.11 in SSE 4.0 mph 4.0 mph 64 % 0.00 in 413.00 W/m2
13:34 54.6 °F 41.9 °F 30.11 in Calm     62 % 0.00 in 452.00 W/m2
13:49 54.7 °F 42.0 °F 30.11 in South 3.0 mph 6.0 mph 62 % 0.00 in 425.00 W/m2
13:54 54.7 °F 41.1 °F 30.11 in Calm   4.0 mph 60 % 0.00 in 404.00 W/m2
13:59 54.7 °F 41.1 °F 30.10 in WSW 1.0 mph 5.0 mph 60 % 0.00 in 380.00 W/m2
14:09 54.7 °F 42.0 °F 30.10 in Calm   7.0 mph 62 % 0.00 in 327.00 W/m2
14:14 54.7 °F 42.8 °F 30.10 in Calm   3.0 mph 64 % 0.00 in 348.00 W/m2
14:19 54.6 °F 43.1 °F 30.11 in Calm   2.0 mph 65 % 0.00 in 330.00 W/m2
14:24 54.6 °F 43.5 °F 30.10 in Calm     66 % 0.00 in 320.00 W/m2
14:29 54.5 °F 43.0 °F 30.10 in Calm   6.0 mph 65 % 0.00 in 295.00 W/m2
14:34 54.4 °F 43.7 °F 30.10 in Calm     67 % 0.00 in 246.00 W/m2
14:39 54.1 °F 42.6 °F 30.10 in Calm   4.0 mph 65 % 0.00 in 213.00 W/m2
14:44 54.1 °F 43.0 °F 30.10 in Calm     66 % 0.00 in 264.00 W/m2
14:49 53.9 °F 42.4 °F 30.10 in Calm     65 % 0.00 in 234.00 W/m2
14:54 53.9 °F 42.8 °F 30.11 in Calm   3.0 mph 66 % 0.00 in 192.00 W/m2
14:59 53.8 °F 43.1 °F 30.10 in Calm     67 % 0.00 in 234.00 W/m2
15:04 53.7 °F 43.4 °F 30.11 in Calm   1.0 mph 68 % 0.00 in 220.00 W/m2
15:09 53.6 °F 42.9 °F 30.11 in Calm     67 % 0.00 in 204.00 W/m2
15:14 53.5 °F 42.8 °F 30.11 in Calm     67 % 0.00 in 171.00 W/m2
15:29 53.2 °F 43.7 °F 30.11 in Calm     70 % 0.00 in 132.00 W/m2
15:39 52.8 °F 43.7 °F 30.11 in Calm     71 % 0.00 in 118.00 W/m2
15:44 52.6 °F 44.2 °F 30.11 in Calm     73 % 0.00 in 118.00 W/m2
15:49 52.3 °F 43.9 °F 30.11 in Calm     73 % 0.00 in 100.00 W/m2
15:54 52.2 °F 44.2 °F 30.11 in Calm     74 % 0.00 in 69.00 W/m2
16:04 51.8 °F 43.8 °F 30.11 in Calm     74 % 0.00 in 58.00 W/m2
16:09 51.6 °F 44.3 °F 30.10 in Calm     76 % 0.00 in 47.00 W/m2
16:14 51.4 °F 44.1 °F 30.10 in Calm     76 % 0.00 in 32.00 W/m2
16:24 51.0 °F 44.0 °F 30.10 in Calm     77 % 0.00 in 19.00 W/m2
16:34 50.4 °F 44.1 °F 30.10 in Calm     79 % 0.00 in 11.00 W/m2
16:45 49.8 °F 43.9 °F 30.10 in Calm     80 % 0.00 in 0.00 W/m2
16:50 49.6 °F 44.0 °F 30.10 in Calm     81 % 0.00 in 0.00 W/m2
16:55 49.3 °F 44.0 °F 30.10 in Calm     82 % 0.00 in 0.00 W/m2
17:00 48.9 °F 43.7 °F 30.10 in Calm     82 % 0.00 in 0.00 W/m2
17:10 48.2 °F 43.6 °F 30.10 in Calm     84 % 0.00 in 0.00 W/m2
17:15 47.9 °F 43.3 °F 30.10 in Calm     84 % 0.00 in 0.00 W/m2
17:20 47.6 °F 43.0 °F 30.10 in Calm     84 % 0.00 in 0.00 W/m2
17:25 47.3 °F 43.0 °F 30.11 in Calm     85 % 0.00 in 0.00 W/m2
17:30 47.2 °F 42.9 °F 30.11 in Calm     85 % 0.00 in 0.00 W/m2
17:35 47.0 °F 42.7 °F 30.11 in Calm     85 % 0.00 in 0.00 W/m2
17:40 46.8 °F 42.5 °F 30.10 in Calm     85 % 0.00 in 0.00 W/m2
17:50 46.5 °F 42.5 °F 30.11 in Calm     86 % 0.00 in 0.00 W/m2
18:00 46.1 °F 42.2 °F 30.11 in Calm     86 % 0.00 in 0.00 W/m2
18:05 46.0 °F 42.3 °F 30.11 in Calm     87 % 0.00 in 0.00 W/m2
18:15 45.8 °F 42.5 °F 30.11 in Calm     88 % 0.00 in 0.00 W/m2
18:20 45.7 °F 42.1 °F 30.11 in Calm     87 % 0.00 in 0.00 W/m2
18:25 45.6 °F 42.0 °F 30.11 in Calm     87 % 0.00 in 0.00 W/m2
18:30 45.6 °F 42.0 °F 30.11 in Calm     87 % 0.00 in 0.00 W/m2
18:35 45.5 °F 42.2 °F 30.11 in Calm     88 % 0.00 in 0.00 W/m2
18:40 45.5 °F 42.2 °F 30.11 in Calm     88 % 0.00 in 0.00 W/m2
18:50 45.5 °F 42.2 °F 30.11 in Calm     88 % 0.00 in 0.00 W/m2
18:55 45.4 °F 42.1 °F 30.11 in Calm     88 % 0.00 in 0.00 W/m2
19:00 45.3 °F 42.0 °F 30.11 in Calm     88 % 0.00 in 0.00 W/m2
19:05 45.3 °F 42.0 °F 30.11 in ESE 6.0 mph 6.0 mph 88 % 0.00 in 0.00 W/m2
19:16 45.2 °F 41.9 °F 30.11 in ESE 2.0 mph 6.0 mph 88 % 0.00 in 0.00 W/m2
19:19 45.2 °F 41.9 °F 30.11 in Calm   8.0 mph 88 % 0.00 in 0.00 W/m2
19:24 45.1 °F 41.8 °F 30.10 in East 6.0 mph 8.0 mph 88 % 0.00 in 0.00 W/m2
19:30 45.1 °F 41.8 °F 30.10 in East 4.0 mph 9.0 mph 88 % 0.00 in 0.00 W/m2
19:35 45.2 °F 41.9 °F 30.10 in Calm   1.0 mph 88 % 0.00 in 0.00 W/m2
19:45 45.3 °F 41.7 °F 30.11 in Calm   1.0 mph 87 % 0.00 in 0.00 W/m2
19:51 45.4 °F 41.8 °F 30.11 in East 6.0 mph 6.0 mph 87 % 0.00 in 0.00 W/m2
19:56 45.4 °F 41.8 °F 30.12 in East 4.0 mph 5.0 mph 87 % 0.00 in 0.00 W/m2
20:01 45.3 °F 41.7 °F 30.11 in Calm     87 % 0.00 in 0.00 W/m2
20:06 45.2 °F 41.3 °F 30.12 in Calm     86 % 0.00 in 0.00 W/m2
20:21 44.9 °F 41.0 °F 30.12 in East 1.0 mph 2.0 mph 86 % 0.00 in 0.00 W/m2
20:31 44.6 °F 40.4 °F 30.12 in Calm     85 % 0.00 in 0.00 W/m2
20:36 44.6 °F 40.4 °F 30.12 in ESE 4.0 mph 6.0 mph 85 % 0.00 in 0.00 W/m2
20:41 44.5 °F 40.3 °F 30.12 in ESE 5.0 mph 5.0 mph 85 % 0.00 in 0.00 W/m2
20:46 44.6 °F 40.4 °F 30.12 in ESE 1.0 mph 7.0 mph 85 % 0.00 in 0.00 W/m2
20:51 44.6 °F 40.4 °F 30.12 in East 1.0 mph 6.0 mph 85 % 0.00 in 0.00 W/m2
20:56 44.7 °F 40.2 °F 30.12 in East 7.0 mph 8.0 mph 84 % 0.00 in 0.00 W/m2
21:01 44.7 °F 40.2 °F 30.12 in East 2.0 mph 7.0 mph 84 % 0.00 in 0.00 W/m2
21:06 44.7 °F 39.9 °F 30.12 in East 4.0 mph 4.0 mph 83 % 0.00 in 0.00 W/m2
21:11 44.7 °F 39.5 °F 30.13 in East 5.0 mph 9.0 mph 82 % 0.00 in 0.00 W/m2
21:16 44.7 °F 39.5 °F 30.12 in East 2.0 mph 4.0 mph 82 % 0.00 in 0.00 W/m2
21:21 44.7 °F 39.2 °F 30.12 in East 7.0 mph 7.0 mph 81 % 0.00 in 0.00 W/m2
21:26 44.7 °F 38.9 °F 30.12 in East 8.0 mph 8.0 mph 80 % 0.00 in 0.00 W/m2
21:31 44.8 °F 38.7 °F 30.12 in ESE 4.0 mph 11.0 mph 79 % 0.00 in 0.00 W/m2
21:36 44.8 °F 38.7 °F 30.12 in Calm   11.0 mph 79 % 0.00 in 0.00 W/m2
21:46 44.9 °F 38.1 °F 30.11 in Calm   11.0 mph 77 % 0.00 in 0.00 W/m2
21:51 44.9 °F 37.8 °F 30.11 in ESE 4.0 mph 13.0 mph 76 % 0.00 in 0.00 W/m2
21:56 44.9 °F 37.5 °F 30.11 in ESE 7.0 mph 11.0 mph 75 % 0.00 in 0.00 W/m2
22:01 44.9 °F 37.5 °F 30.11 in ESE 6.0 mph 12.0 mph 75 % 0.00 in 0.00 W/m2
22:06 44.9 °F 37.1 °F 30.11 in ESE 11.0 mph 11.0 mph 74 % 0.00 in 0.00 W/m2
22:11 44.9 °F 36.8 °F 30.11 in ESE 4.0 mph 13.0 mph 73 % 0.00 in 0.00 W/m2
22:16 44.9 °F 36.8 °F 30.11 in Calm   8.0 mph 73 % 0.00 in 0.00 W/m2
22:21 44.9 °F 37.1 °F 30.11 in Calm   9.0 mph 74 % 0.00 in 0.00 W/m2
22:26 44.8 °F 36.3 °F 30.11 in East 9.0 mph 12.0 mph 72 % 0.00 in 0.00 W/m2
22:41 44.7 °F 35.9 °F 30.11 in Calm   12.0 mph 71 % 0.00 in 0.00 W/m2
22:47 44.7 °F 35.5 °F 30.11 in ESE 7.0 mph 7.0 mph 70 % 0.00 in 0.00 W/m2
22:52 44.6 °F 35.4 °F 30.11 in ESE 5.0 mph 12.0 mph 70 % 0.00 in 0.00 W/m2
22:57 44.6 °F 35.1 °F 30.11 in ESE 14.0 mph 14.0 mph 69 % 0.00 in 0.00 W/m2
23:02 44.6 °F 35.1 °F 30.11 in East 9.0 mph 12.0 mph 69 % 0.00 in 0.00 W/m2
23:07 44.6 °F 34.7 °F 30.11 in ESE 5.0 mph 9.0 mph 68 % 0.00 in 0.00 W/m2
23:12 44.6 °F 35.1 °F 30.11 in Calm   12.0 mph 69 % 0.00 in 0.00 W/m2
23:17 44.6 °F 34.7 °F 30.11 in ESE 4.0 mph 11.0 mph 68 % 0.00 in 0.00 W/m2
23:27 44.5 °F 34.2 °F 30.11 in ESE 15.0 mph 15.0 mph 67 % 0.00 in 0.00 W/m2
23:32 44.5 °F 33.9 °F 30.11 in ESE 7.0 mph 11.0 mph 66 % 0.00 in 0.00 W/m2
23:37 44.5 °F 33.9 °F 30.11 in ESE 4.0 mph 16.0 mph 66 % 0.00 in 0.00 W/m2
23:42 44.6 °F 34.0 °F 30.11 in ESE 7.0 mph 14.0 mph 66 % 0.00 in 0.00 W/m2
23:47 44.6 °F 34.0 °F 30.11 in ESE 9.0 mph 13.0 mph 66 % 0.00 in 0.00 W/m2
23:52 44.6 °F 34.3 °F 30.11 in East 5.0 mph 13.0 mph 67 % 0.00 in 0.00 W/m2
Juneau County Weather
Compliments of Weather Underground - 4.25 mb
 WU-history PHP script courtesy of   Juneau County Weather.
powered by Cumulus v1.9.3 (1059)
Ambient Weather VWS v14.00
Top Contact Website Map Copyright © 2007 - 2018 Foresthillweather.com Never base important decisions on this or any weather information obtained from the Internet